sensor_id;sensor_type;location;lat;lon;timestamp;pressure;altitude;pressure_sealevel;temperature;humidity
14594;BME280;7383;52.354;9.756;2022-10-15T00:02:09;-12735.50;;;16.15;100.00
14594;BME280;7383;52.354;9.756;2022-10-15T00:04:36;-12735.50;;;16.15;100.00
14594;BME280;7383;52.354;9.756;2022-10-15T00:07:03;-12735.69;;;16.16;100.00
14594;BME280;7383;52.354;9.756;2022-10-15T00:09:31;-12735.84;;;16.17;100.00
14594;BME280;7383;52.354;9.756;2022-10-15T00:11:58;-12735.59;;;16.16;100.00
14594;BME280;7383;52.354;9.756;2022-10-15T00:14:25;-12735.34;;;16.14;100.00
14594;BME280;7383;52.354;9.756;2022-10-15T00:16:52;-12735.34;;;16.14;100.00
14594;BME280;7383;52.354;9.756;2022-10-15T00:19:19;-12735.34;;;16.14;100.00
14594;BME280;7383;52.354;9.756;2022-10-15T00:21:45;-12735.06;;;16.13;100.00
14594;BME280;7383;52.354;9.756;2022-10-15T00:24:12;-12735.06;;;16.13;100.00
14594;BME280;7383;52.354;9.756;2022-10-15T00:26:41;-12734.72;;;16.11;100.00
14594;BME280;7383;52.354;9.756;2022-10-15T00:29:12;-12734.31;;;16.08;100.00
14594;BME280;7383;52.354;9.756;2022-10-15T00:31:39;-12734.13;;;16.07;100.00
14594;BME280;7383;52.354;9.756;2022-10-15T00:34:06;-12733.88;;;16.06;100.00
14594;BME280;7383;52.354;9.756;2022-10-15T00:36:35;-12733.44;;;16.03;100.00
14594;BME280;7383;52.354;9.756;2022-10-15T00:39:05;-12732.91;;;16.00;100.00
14594;BME280;7383;52.354;9.756;2022-10-15T00:41:36;-12732.31;;;15.97;100.00
14594;BME280;7383;52.354;9.756;2022-10-15T00:47:12;-12731.78;;;15.94;100.00
14594;BME280;7383;52.354;9.756;2022-10-15T00:49:42;-12731.28;;;15.91;100.00
14594;BME280;7383;52.354;9.756;2022-10-15T00:52:13;-12730.66;;;15.87;100.00
14594;BME280;7383;52.354;9.756;2022-10-15T00:54:45;-12730.22;;;15.85;100.00
14594;BME280;7383;52.354;9.756;2022-10-15T00:57:13;-12729.88;;;15.83;100.00
14594;BME280;7383;52.354;9.756;2022-10-15T00:59:43;-12729.44;;;15.80;100.00
14594;BME280;7383;52.354;9.756;2022-10-15T01:02:14;-12729.44;;;15.80;100.00
14594;BME280;7383;52.354;9.756;2022-10-15T01:04:42;-12729.28;;;15.79;100.00
14594;BME280;7383;52.354;9.756;2022-10-15T01:07:08;-12729.00;;;15.77;100.00
14594;BME280;7383;52.354;9.756;2022-10-15T01:09:35;-12728.75;;;15.76;100.00
14594;BME280;7383;52.354;9.756;2022-10-15T01:12:02;-12728.59;;;15.75;100.00
14594;BME280;7383;52.354;9.756;2022-10-15T01:14:37;-12728.41;;;15.74;100.00
14594;BME280;7383;52.354;9.756;2022-10-15T01:17:11;-12728.31;;;15.73;100.00
14594;BME280;7383;52.354;9.756;2022-10-15T01:20:05;-12728.66;;;15.75;100.00
14594;BME280;7383;52.354;9.756;2022-10-15T01:22:47;-12728.25;;;15.73;100.00
14594;BME280;7383;52.354;9.756;2022-10-15T01:25:25;-12728.25;;;15.73;100.00
14594;BME280;7383;52.354;9.756;2022-10-15T01:28:09;-12727.88;;;15.71;100.00
14594;BME280;7383;52.354;9.756;2022-10-15T01:30:45;-12727.03;;;15.66;100.00
14594;BME280;7383;52.354;9.756;2022-10-15T01:33:26;-12726.06;;;15.60;100.00
14594;BME280;7383;52.354;9.756;2022-10-15T01:36:05;-12725.38;;;15.56;100.00
14594;BME280;7383;52.354;9.756;2022-10-15T01:38:45;-12724.78;;;15.53;100.00
14594;BME280;7383;52.354;9.756;2022-10-15T01:41:17;-12724.50;;;15.51;100.00
14594;BME280;7383;52.354;9.756;2022-10-15T01:43:52;-12723.91;;;15.48;100.00
14594;BME280;7383;52.354;9.756;2022-10-15T01:46:26;-12723.03;;;15.43;100.00
14594;BME280;7383;52.354;9.756;2022-10-15T01:48:57;-12722.16;;;15.38;100.00
14594;BME280;7383;52.354;9.756;2022-10-15T01:51:25;-12721.31;;;15.33;100.00
14594;BME280;7383;52.354;9.756;2022-10-15T01:53:54;-12721.03;;;15.31;100.00
14594;BME280;7383;52.354;9.756;2022-10-15T01:56:22;-12720.97;;;15.31;100.00
14594;BME280;7383;52.354;9.756;2022-10-15T01:58:50;-12720.59;;;15.28;100.00
14594;BME280;7383;52.354;9.756;2022-10-15T02:01:20;-12720.19;;;15.26;100.00
14594;BME280;7383;52.354;9.756;2022-10-15T02:03:49;-12720.25;;;15.26;100.00
14594;BME280;7383;52.354;9.756;2022-10-15T02:06:20;-12719.66;;;15.23;100.00
14594;BME280;7383;52.354;9.756;2022-10-15T02:08:56;-12719.06;;;15.19;100.00
14594;BME280;7383;52.354;9.756;2022-10-15T02:11:28;-12718.44;;;15.16;100.00
14594;BME280;7383;52.354;9.756;2022-10-15T02:13:59;-12718.53;;;15.16;100.00
14594;BME280;7383;52.354;9.756;2022-10-15T02:16:29;-12718.28;;;15.15;100.00
14594;BME280;7383;52.354;9.756;2022-10-15T02:19:04;-12718.09;;;15.14;100.00
14594;BME280;7383;52.354;9.756;2022-10-15T02:21:36;-12717.50;;;15.10;100.00
14594;BME280;7383;52.354;9.756;2022-10-15T02:24:07;-12717.16;;;15.08;100.00
14594;BME280;7383;52.354;9.756;2022-10-15T02:26:36;-12717.22;;;15.09;100.00
14594;BME280;7383;52.354;9.756;2022-10-15T02:29:08;-12716.63;;;15.05;100.00
14594;BME280;7383;52.354;9.756;2022-10-15T02:31:38;-12715.75;;;15.00;100.00
14594;BME280;7383;52.354;9.756;2022-10-15T02:34:10;-12715.50;;;14.99;100.00
14594;BME280;7383;52.354;9.756;2022-10-15T02:36:39;-12715.41;;;14.98;100.00
14594;BME280;7383;52.354;9.756;2022-10-15T02:39:08;-12715.06;;;14.96;100.00
14594;BME280;7383;52.354;9.756;2022-10-15T02:41:38;-12714.63;;;14.94;100.00
14594;BME280;7383;52.354;9.756;2022-10-15T02:44:05;-12714.38;;;14.92;100.00
14594;BME280;7383;52.354;9.756;2022-10-15T02:46:31;-12714.09;;;14.91;100.00
14594;BME280;7383;52.354;9.756;2022-10-15T02:48:58;-12713.69;;;14.88;100.00
14594;BME280;7383;52.354;9.756;2022-10-15T02:51:26;-12713.31;;;14.86;100.00
14594;BME280;7383;52.354;9.756;2022-10-15T02:53:52;-12712.97;;;14.84;100.00
14594;BME280;7383;52.354;9.756;2022-10-15T02:56:19;-12712.81;;;14.83;100.00
14594;BME280;7383;52.354;9.756;2022-10-15T02:58:45;-12712.28;;;14.80;100.00
14594;BME280;7383;52.354;9.756;2022-10-15T03:01:12;-12712.19;;;14.79;100.00
14594;BME280;7383;52.354;9.756;2022-10-15T03:03:38;-12711.59;;;14.76;100.00
14594;BME280;7383;52.354;9.756;2022-10-15T03:06:05;-12711.75;;;14.77;100.00
14594;BME280;7383;52.354;9.756;2022-10-15T03:08:33;-12711.16;;;14.73;100.00
14594;BME280;7383;52.354;9.756;2022-10-15T03:11:00;-12710.97;;;14.72;100.00
14594;BME280;7383;52.354;9.756;2022-10-15T03:13:27;-12710.63;;;14.70;100.00
14594;BME280;7383;52.354;9.756;2022-10-15T03:15:54;-12709.59;;;14.64;100.00
14594;BME280;7383;52.354;9.756;2022-10-15T03:18:21;-12709.25;;;14.62;100.00
14594;BME280;7383;52.354;9.756;2022-10-15T03:20:52;-12709.84;;;14.66;100.00
14594;BME280;7383;52.354;9.756;2022-10-15T03:23:18;-12709.34;;;14.63;100.00
14594;BME280;7383;52.354;9.756;2022-10-15T03:25:47;-12709.16;;;14.62;100.00
14594;BME280;7383;52.354;9.756;2022-10-15T03:28:13;-12709.00;;;14.61;100.00
14594;BME280;7383;52.354;9.756;2022-10-15T03:30:40;-12708.81;;;14.60;100.00
14594;BME280;7383;52.354;9.756;2022-10-15T03:33:07;-12708.56;;;14.58;100.00
14594;BME280;7383;52.354;9.756;2022-10-15T03:35:34;-12708.72;;;14.59;100.00
14594;BME280;7383;52.354;9.756;2022-10-15T03:38:01;-12708.13;;;14.56;100.00
14594;BME280;7383;52.354;9.756;2022-10-15T03:40:27;-12708.28;;;14.57;100.00
14594;BME280;7383;52.354;9.756;2022-10-15T03:42:55;-12708.38;;;14.57;100.00
14594;BME280;7383;52.354;9.756;2022-10-15T03:45:22;-12708.28;;;14.57;100.00
14594;BME280;7383;52.354;9.756;2022-10-15T03:47:49;-12708.47;;;14.58;100.00
14594;BME280;7383;52.354;9.756;2022-10-15T03:50:16;-12708.22;;;14.56;100.00
14594;BME280;7383;52.354;9.756;2022-10-15T03:52:42;-12708.13;;;14.56;100.00
14594;BME280;7383;52.354;9.756;2022-10-15T03:55:10;-12708.56;;;14.58;100.00
14594;BME280;7383;52.354;9.756;2022-10-15T03:57:37;-12709.06;;;14.61;100.00
14594;BME280;7383;52.354;9.756;2022-10-15T04:00:06;-12709.16;;;14.62;100.00
14594;BME280;7383;52.354;9.756;2022-10-15T04:02:33;-12709.06;;;14.61;100.00
14594;BME280;7383;52.354;9.756;2022-10-15T04:05:00;-12708.91;;;14.60;100.00
14594;BME280;7383;52.354;9.756;2022-10-15T04:07:27;-12708.81;;;14.60;100.00
14594;BME280;7383;52.354;9.756;2022-10-15T04:09:53;-12709.06;;;14.61;100.00
14594;BME280;7383;52.354;9.756;2022-10-15T04:12:20;-12709.00;;;14.61;100.00
14594;BME280;7383;52.354;9.756;2022-10-15T04:14:46;-12709.50;;;14.64;100.00
14594;BME280;7383;52.354;9.756;2022-10-15T04:17:14;-12709.78;;;14.65;100.00
14594;BME280;7383;52.354;9.756;2022-10-15T04:19:41;-12709.78;;;14.65;100.00
14594;BME280;7383;52.354;9.756;2022-10-15T04:22:07;-12708.63;;;14.59;100.00
14594;BME280;7383;52.354;9.756;2022-10-15T04:24:34;-12709.06;;;14.61;100.00
14594;BME280;7383;52.354;9.756;2022-10-15T04:27:00;-12708.13;;;14.56;100.00
14594;BME280;7383;52.354;9.756;2022-10-15T04:29:27;-12708.03;;;14.55;100.00
14594;BME280;7383;52.354;9.756;2022-10-15T04:31:53;-12707.78;;;14.54;100.00
14594;BME280;7383;52.354;9.756;2022-10-15T04:34:21;-12707.84;;;14.54;100.00
14594;BME280;7383;52.354;9.756;2022-10-15T04:36:55;-12707.59;;;14.53;100.00
14594;BME280;7383;52.354;9.756;2022-10-15T04:39:42;-12708.22;;;14.56;100.00
14594;BME280;7383;52.354;9.756;2022-10-15T04:42:09;-12707.44;;;14.52;100.00
14594;BME280;7383;52.354;9.756;2022-10-15T04:44:35;-12707.09;;;14.50;100.00
14594;BME280;7383;52.354;9.756;2022-10-15T04:47:01;-12706.91;;;14.49;100.00
14594;BME280;7383;52.354;9.756;2022-10-15T04:49:29;-12707.59;;;14.53;100.00
14594;BME280;7383;52.354;9.756;2022-10-15T04:51:56;-12707.44;;;14.52;100.00
14594;BME280;7383;52.354;9.756;2022-10-15T04:54:22;-12706.91;;;14.49;100.00
14594;BME280;7383;52.354;9.756;2022-10-15T04:56:49;-12707.16;;;14.50;100.00
14594;BME280;7383;52.354;9.756;2022-10-15T04:59:15;-12706.91;;;14.49;100.00
14594;BME280;7383;52.354;9.756;2022-10-15T05:01:42;-12706.56;;;14.47;100.00
14594;BME280;7383;52.354;9.756;2022-10-15T05:04:09;-12706.81;;;14.48;100.00
14594;BME280;7383;52.354;9.756;2022-10-15T05:06:37;-12706.72;;;14.48;100.00
14594;BME280;7383;52.354;9.756;2022-10-15T05:09:04;-12707.00;;;14.49;100.00
14594;BME280;7383;52.354;9.756;2022-10-15T05:11:30;-12707.25;;;14.51;100.00
14594;BME280;7383;52.354;9.756;2022-10-15T05:14:00;-12707.09;;;14.50;100.00
14594;BME280;7383;52.354;9.756;2022-10-15T05:16:28;-12707.16;;;14.50;100.00
14594;BME280;7383;52.354;9.756;2022-10-15T05:18:56;-12706.81;;;14.48;100.00
14594;BME280;7383;52.354;9.756;2022-10-15T05:21:23;-12706.72;;;14.48;100.00
14594;BME280;7383;52.354;9.756;2022-10-15T05:23:51;-12706.72;;;14.48;100.00
14594;BME280;7383;52.354;9.756;2022-10-15T05:26:20;-12706.91;;;14.49;100.00
14594;BME280;7383;52.354;9.756;2022-10-15T05:28:47;-12706.72;;;14.48;100.00
14594;BME280;7383;52.354;9.756;2022-10-15T05:31:15;-12706.66;;;14.47;100.00
14594;BME280;7383;52.354;9.756;2022-10-15T05:33:42;-12706.47;;;14.46;100.00
14594;BME280;7383;52.354;9.756;2022-10-15T05:36:10;-12706.91;;;14.49;100.00
14594;BME280;7383;52.354;9.756;2022-10-15T05:38:37;-12706.47;;;14.46;100.00
14594;BME280;7383;52.354;9.756;2022-10-15T05:41:05;-12706.66;;;14.47;100.00
14594;BME280;7383;52.354;9.756;2022-10-15T05:43:32;-12706.81;;;14.48;100.00
14594;BME280;7383;52.354;9.756;2022-10-15T05:45:59;-12706.72;;;14.48;100.00
14594;BME280;7383;52.354;9.756;2022-10-15T05:48:25;-12706.38;;;14.46;100.00
14594;BME280;7383;52.354;9.756;2022-10-15T05:50:52;-12706.47;;;14.46;100.00
14594;BME280;7383;52.354;9.756;2022-10-15T05:53:18;-12706.66;;;14.47;100.00
14594;BME280;7383;52.354;9.756;2022-10-15T05:55:45;-12706.91;;;14.49;100.00
14594;BME280;7383;52.354;9.756;2022-10-15T05:58:13;-12706.56;;;14.47;100.00
14594;BME280;7383;52.354;9.756;2022-10-15T06:00:40;-12706.03;;;14.44;100.00
14594;BME280;7383;52.354;9.756;2022-10-15T06:03:10;-12706.47;;;14.46;100.00
14594;BME280;7383;52.354;9.756;2022-10-15T06:05:37;-12706.38;;;14.46;100.00
14594;BME280;7383;52.354;9.756;2022-10-15T06:08:04;-12706.31;;;14.45;100.00
14594;BME280;7383;52.354;9.756;2022-10-15T06:10:34;-12706.81;;;14.48;100.00
14594;BME280;7383;52.354;9.756;2022-10-15T06:13:02;-12706.91;;;14.49;100.00
14594;BME280;7383;52.354;9.756;2022-10-15T06:15:30;-12707.09;;;14.50;100.00
14594;BME280;7383;52.354;9.756;2022-10-15T06:17:56;-12707.34;;;14.51;100.00
14594;BME280;7383;52.354;9.756;2022-10-15T06:20:23;-12707.44;;;14.52;100.00
14594;BME280;7383;52.354;9.756;2022-10-15T06:22:49;-12707.16;;;14.50;100.00
14594;BME280;7383;52.354;9.756;2022-10-15T06:25:16;-12706.81;;;14.48;100.00
14594;BME280;7383;52.354;9.756;2022-10-15T06:27:42;-12706.91;;;14.49;100.00
14594;BME280;7383;52.354;9.756;2022-10-15T06:30:11;-12707.94;;;14.55;100.00
14594;BME280;7383;52.354;9.756;2022-10-15T06:32:46;-12708.13;;;14.56;100.00
14594;BME280;7383;52.354;9.756;2022-10-15T06:35:12;-12708.63;;;14.59;100.00
14594;BME280;7383;52.354;9.756;2022-10-15T06:40:13;-12709.34;;;14.63;100.00
14594;BME280;7383;52.354;9.756;2022-10-15T06:42:40;-12709.50;;;14.64;100.00
14594;BME280;7383;52.354;9.756;2022-10-15T06:45:12;-12710.47;;;14.69;100.00
14594;BME280;7383;52.354;9.756;2022-10-15T06:47:50;-12710.72;;;14.71;100.00
14594;BME280;7383;52.354;9.756;2022-10-15T06:50:19;-12710.28;;;14.68;100.00
14594;BME280;7383;52.354;9.756;2022-10-15T06:52:46;-12710.22;;;14.68;100.00
14594;BME280;7383;52.354;9.756;2022-10-15T06:55:29;-12710.28;;;14.68;100.00
14594;BME280;7383;52.354;9.756;2022-10-15T06:57:58;-12710.47;;;14.69;100.00
14594;BME280;7383;52.354;9.756;2022-10-15T07:00:25;-12710.13;;;14.67;100.00
14594;BME280;7383;52.354;9.756;2022-10-15T07:02:54;-12710.81;;;14.71;100.00
14594;BME280;7383;52.354;9.756;2022-10-15T07:05:21;-12711.41;;;14.75;100.00
14594;BME280;7383;52.354;9.756;2022-10-15T07:07:51;-12713.16;;;14.85;100.00
14594;BME280;7383;52.354;9.756;2022-10-15T07:10:18;-12713.75;;;14.89;100.00
14594;BME280;7383;52.354;9.756;2022-10-15T07:12:44;-12714.53;;;14.93;100.00
14594;BME280;7383;52.354;9.756;2022-10-15T07:15:11;-12715.50;;;14.99;100.00
14594;BME280;7383;52.354;9.756;2022-10-15T07:17:37;-12716.09;;;15.02;100.00
14594;BME280;7383;52.354;9.756;2022-10-15T07:20:07;-12717.06;;;15.08;100.00
14594;BME280;7383;52.354;9.756;2022-10-15T07:22:33;-12717.31;;;15.09;100.00
14594;BME280;7383;52.354;9.756;2022-10-15T07:25:00;-12718.34;;;15.15;100.00
14594;BME280;7383;52.354;9.756;2022-10-15T07:27:30;-12720.09;;;15.25;100.00
14594;BME280;7383;52.354;9.756;2022-10-15T07:29:57;-12720.25;;;15.26;100.00
14594;BME280;7383;52.354;9.756;2022-10-15T07:32:25;-12720.19;;;15.26;100.00
14594;BME280;7383;52.354;9.756;2022-10-15T07:34:52;-12720.44;;;15.27;100.00
14594;BME280;7383;52.354;9.756;2022-10-15T07:37:20;-12720.44;;;15.27;100.00
14594;BME280;7383;52.354;9.756;2022-10-15T07:39:47;-12720.53;;;15.28;100.00
14594;BME280;7383;52.354;9.756;2022-10-15T07:42:19;-12721.31;;;15.33;100.00
14594;BME280;7383;52.354;9.756;2022-10-15T07:44:46;-12721.47;;;15.34;100.00
14594;BME280;7383;52.354;9.756;2022-10-15T07:47:13;-12721.47;;;15.34;100.00
14594;BME280;7383;52.354;9.756;2022-10-15T07:49:39;-12721.75;;;15.35;100.00
14594;BME280;7383;52.354;9.756;2022-10-15T07:52:06;-12721.38;;;15.33;100.00
14594;BME280;7383;52.354;9.756;2022-10-15T07:54:37;-12720.97;;;15.31;100.00
14594;BME280;7383;52.354;9.756;2022-10-15T07:57:04;-12721.13;;;15.32;100.00
14594;BME280;7383;52.354;9.756;2022-10-15T07:59:32;-12721.75;;;15.35;100.00
14594;BME280;7383;52.354;9.756;2022-10-15T08:02:04;-12722.44;;;15.39;100.00
14594;BME280;7383;52.354;9.756;2022-10-15T08:04:36;-12722.34;;;15.39;100.00
14594;BME280;7383;52.354;9.756;2022-10-15T08:07:03;-12721.91;;;15.36;100.00
14594;BME280;7383;52.354;9.756;2022-10-15T08:09:30;-12721.91;;;15.36;100.00
14594;BME280;7383;52.354;9.756;2022-10-15T08:11:58;-12722.78;;;15.41;100.00
14594;BME280;7383;52.354;9.756;2022-10-15T08:14:25;-12723.28;;;15.44;100.00
14594;BME280;7383;52.354;9.756;2022-10-15T08:16:51;-12724.69;;;15.52;100.00
14594;BME280;7383;52.354;9.756;2022-10-15T08:19:18;-12725.47;;;15.57;100.00
14594;BME280;7383;52.354;9.756;2022-10-15T08:21:45;-12726.16;;;15.61;100.00
14594;BME280;7383;52.354;9.756;2022-10-15T08:24:11;-12726.84;;;15.65;100.00
14594;BME280;7383;52.354;9.756;2022-10-15T08:26:38;-12727.28;;;15.67;100.00
14594;BME280;7383;52.354;9.756;2022-10-15T08:29:06;-12727.72;;;15.70;100.00
14594;BME280;7383;52.354;9.756;2022-10-15T08:31:32;-12728.06;;;15.72;100.00
14594;BME280;7383;52.354;9.756;2022-10-15T08:34:01;-12728.50;;;15.74;100.00
14594;BME280;7383;52.354;9.756;2022-10-15T08:36:28;-12728.31;;;15.73;100.00
14594;BME280;7383;52.354;9.756;2022-10-15T08:38:55;-12728.94;;;15.77;100.00
14594;BME280;7383;52.354;9.756;2022-10-15T08:41:25;-12728.59;;;15.75;100.00
14594;BME280;7383;52.354;9.756;2022-10-15T08:43:54;-12727.81;;;15.70;100.00
14594;BME280;7383;52.354;9.756;2022-10-15T08:46:30;-12727.63;;;15.69;100.00
14594;BME280;7383;52.354;9.756;2022-10-15T08:49:00;-12728.84;;;15.77;100.00
14594;BME280;7383;52.354;9.756;2022-10-15T08:51:33;-12729.38;;;15.80;100.00
14594;BME280;7383;52.354;9.756;2022-10-15T08:54:05;-12730.41;;;15.86;100.00
14594;BME280;7383;52.354;9.756;2022-10-15T08:56:34;-12730.91;;;15.89;100.00
14594;BME280;7383;52.354;9.756;2022-10-15T08:59:19;-12731.78;;;15.94;100.00
14594;BME280;7383;52.354;9.756;2022-10-15T09:01:56;-12733.59;;;16.04;100.00
14594;BME280;7383;52.354;9.756;2022-10-15T09:04:29;-12734.91;;;16.12;100.00
14594;BME280;7383;52.354;9.756;2022-10-15T09:07:02;-12736.19;;;16.19;100.00
14594;BME280;7383;52.354;9.756;2022-10-15T09:09:38;-12737.94;;;16.30;100.00
14594;BME280;7383;52.354;9.756;2022-10-15T09:12:17;-12739.22;;;16.37;100.00
14594;BME280;7383;52.354;9.756;2022-10-15T09:14:56;-12740.28;;;16.43;100.00
14594;BME280;7383;52.354;9.756;2022-10-15T09:17:29;-12740.00;;;16.42;100.00
14594;BME280;7383;52.354;9.756;2022-10-15T09:19:57;-12739.94;;;16.41;100.00
14594;BME280;7383;52.354;9.756;2022-10-15T09:22:29;-12739.84;;;16.41;100.00
14594;BME280;7383;52.354;9.756;2022-10-15T09:24:57;-12739.31;;;16.38;100.00
14594;BME280;7383;52.354;9.756;2022-10-15T09:27:28;-12740.19;;;16.43;100.00
14594;BME280;7383;52.354;9.756;2022-10-15T09:30:02;-12741.38;;;16.50;100.00
14594;BME280;7383;52.354;9.756;2022-10-15T09:32:38;-12742.34;;;16.55;100.00
14594;BME280;7383;52.354;9.756;2022-10-15T09:35:14;-12743.13;;;16.60;100.00
14594;BME280;7383;52.354;9.756;2022-10-15T09:37:49;-12744.16;;;16.66;100.00
14594;BME280;7383;52.354;9.756;2022-10-15T09:40:32;-12745.56;;;16.74;100.00
14594;BME280;7383;52.354;9.756;2022-10-15T09:43:03;-12747.53;;;16.86;100.00
14594;BME280;7383;52.354;9.756;2022-10-15T09:45:31;-12750.91;;;17.05;100.00
14594;BME280;7383;52.354;9.756;2022-10-15T09:48:14;-12753.25;;;17.19;100.00
14594;BME280;7383;52.354;9.756;2022-10-15T09:50:43;-12753.31;;;17.19;100.00
14594;BME280;7383;52.354;9.756;2022-10-15T09:53:20;-12752.63;;;17.15;100.00
14594;BME280;7383;52.354;9.756;2022-10-15T09:55:52;-12752.91;;;17.17;100.00
14594;BME280;7383;52.354;9.756;2022-10-15T09:58:29;-12751.94;;;17.11;100.00
14594;BME280;7383;52.354;9.756;2022-10-15T10:00:58;-12750.91;;;17.05;100.00
14594;BME280;7383;52.354;9.756;2022-10-15T10:03:28;-12751.16;;;17.07;100.00
14594;BME280;7383;52.354;9.756;2022-10-15T10:06:01;-12752.13;;;17.12;100.00
14594;BME280;7383;52.354;9.756;2022-10-15T10:08:37;-12752.72;;;17.16;100.00
14594;BME280;7383;52.354;9.756;2022-10-15T10:11:09;-12753.75;;;17.22;100.00
14594;BME280;7383;52.354;9.756;2022-10-15T10:13:44;-12754.19;;;17.25;100.00
14594;BME280;7383;52.354;9.756;2022-10-15T10:16:15;-12754.00;;;17.23;100.00
14594;BME280;7383;52.354;9.756;2022-10-15T10:19:03;-12755.66;;;17.33;100.00
14594;BME280;7383;52.354;9.756;2022-10-15T10:21:36;-12756.53;;;17.38;100.00
14594;BME280;7383;52.354;9.756;2022-10-15T10:24:38;-12756.19;;;17.36;100.00
14594;BME280;7383;52.354;9.756;2022-10-15T10:27:19;-12756.44;;;17.38;100.00
14594;BME280;7383;52.354;9.756;2022-10-15T10:29:50;-12757.38;;;17.43;100.00
14594;BME280;7383;52.354;9.756;2022-10-15T10:32:25;-12757.81;;;17.46;100.00
14594;BME280;7383;52.354;9.756;2022-10-15T10:35:18;-12758.59;;;17.50;100.00
14594;BME280;7383;52.354;9.756;2022-10-15T10:37:56;-12758.75;;;17.51;100.00
14594;BME280;7383;52.354;9.756;2022-10-15T10:40:28;-12757.66;;;17.45;100.00
14594;BME280;7383;52.354;9.756;2022-10-15T10:43:15;-12757.66;;;17.45;100.00
14594;BME280;7383;52.354;9.756;2022-10-15T10:46:16;-12755.91;;;17.35;100.00
14594;BME280;7383;52.354;9.756;2022-10-15T10:48:45;-12755.13;;;17.30;100.00
14594;BME280;7383;52.354;9.756;2022-10-15T10:51:16;-12755.75;;;17.34;100.00
14594;BME280;7383;52.354;9.756;2022-10-15T10:53:52;-12756.88;;;17.40;100.00
14594;BME280;7383;52.354;9.756;2022-10-15T10:56:22;-12758.25;;;17.48;100.00
14594;BME280;7383;52.354;9.756;2022-10-15T10:58:56;-12761.00;;;17.64;100.00
14594;BME280;7383;52.354;9.756;2022-10-15T11:01:27;-12763.00;;;17.76;100.00
14594;BME280;7383;52.354;9.756;2022-10-15T11:03:54;-12764.47;;;17.85;100.00
14594;BME280;7383;52.354;9.756;2022-10-15T11:06:52;-12771.38;;;18.25;100.00
14594;BME280;7383;52.354;9.756;2022-10-15T11:09:41;-12776.63;;;18.56;100.00
14594;BME280;7383;52.354;9.756;2022-10-15T11:12:36;-12775.34;;;18.48;100.00
14594;BME280;7383;52.354;9.756;2022-10-15T11:15:19;-12775.25;;;18.48;100.00
14594;BME280;7383;52.354;9.756;2022-10-15T11:17:56;-12781.72;;;18.86;100.00
14594;BME280;7383;52.354;9.756;2022-10-15T11:20:38;-12789.47;;;19.31;100.00
14594;BME280;7383;52.354;9.756;2022-10-15T11:23:29;-12795.16;;;19.64;100.00
14594;BME280;7383;52.354;9.756;2022-10-15T11:26:05;-12800.66;;;19.97;100.00
14594;BME280;7383;52.354;9.756;2022-10-15T11:28:48;-12810.97;;;20.57;100.00
14594;BME280;7383;52.354;9.756;2022-10-15T11:31:24;-12860.38;;;23.49;100.00
14594;BME280;7383;52.354;9.756;2022-10-15T11:34:03;-12893.47;;;25.45;100.00
14594;BME280;7383;52.354;9.756;2022-10-15T11:36:57;-12913.44;;;26.64;100.00
14594;BME280;7383;52.354;9.756;2022-10-15T11:39:38;-12933.22;;;27.81;100.00
14594;BME280;7383;52.354;9.756;2022-10-15T11:42:14;-12946.66;;;28.62;100.00
14594;BME280;7383;52.354;9.756;2022-10-15T11:44:57;-12972.84;;;30.18;100.00
14594;BME280;7383;52.354;9.756;2022-10-15T11:47:39;-12933.38;;;27.82;100.00
14594;BME280;7383;52.354;9.756;2022-10-15T11:50:27;-12890.06;;;25.25;100.00
14594;BME280;7383;52.354;9.756;2022-10-15T11:53:08;-12861.75;;;23.57;100.00
14594;BME280;7383;52.354;9.756;2022-10-15T11:55:41;-12843.63;;;22.50;100.00
14594;BME280;7383;52.354;9.756;2022-10-15T11:58:19;-12829.06;;;21.64;100.00
14594;BME280;7383;52.354;9.756;2022-10-15T12:00:49;-12816.63;;;20.91;100.00
14594;BME280;7383;52.354;9.756;2022-10-15T12:03:22;-12809.41;;;20.48;100.00
14594;BME280;7383;52.354;9.756;2022-10-15T12:05:54;-12802.97;;;20.10;100.00
14594;BME280;7383;52.354;9.756;2022-10-15T12:08:31;-12800.03;;;19.93;100.00
14594;BME280;7383;52.354;9.756;2022-10-15T12:11:11;-12798.25;;;19.83;100.00
14594;BME280;7383;52.354;9.756;2022-10-15T12:13:43;-12798.25;;;19.83;100.00
14594;BME280;7383;52.354;9.756;2022-10-15T12:16:21;-12796.19;;;19.71;100.00
14594;BME280;7383;52.354;9.756;2022-10-15T12:18:56;-12810.53;;;20.55;100.00
14594;BME280;7383;52.354;9.756;2022-10-15T12:21:31;-12874.47;;;24.32;100.00
14594;BME280;7383;52.354;9.756;2022-10-15T12:24:08;-12924.91;;;27.32;100.00
14594;BME280;7383;52.354;9.756;2022-10-15T12:26:53;-12908.28;;;26.33;100.00
14594;BME280;7383;52.354;9.756;2022-10-15T12:29:27;-12897.13;;;25.67;100.00
14594;BME280;7383;52.354;9.756;2022-10-15T12:31:56;-12920.25;;;27.04;100.00
14594;BME280;7383;52.354;9.756;2022-10-15T12:34:27;-12951.41;;;28.90;100.00
14594;BME280;7383;52.354;9.756;2022-10-15T12:37:26;-12983.22;;;30.81;100.00
14594;BME280;7383;52.354;9.756;2022-10-15T12:39:56;-12991.97;;;31.33;100.00
14594;BME280;7383;52.354;9.756;2022-10-15T12:42:40;-12994.56;;;31.49;100.00
14594;BME280;7383;52.354;9.756;2022-10-15T12:45:24;-12956.13;;;29.18;100.00
14594;BME280;7383;52.354;9.756;2022-10-15T12:47:55;-12925.75;;;27.37;100.00
14594;BME280;7383;52.354;9.756;2022-10-15T12:50:38;-12903.69;;;26.06;100.00
14594;BME280;7383;52.354;9.756;2022-10-15T12:53:05;-12892.03;;;25.36;100.00
14594;BME280;7383;52.354;9.756;2022-10-15T12:56:12;-12881.56;;;24.74;100.00
14594;BME280;7383;52.354;9.756;2022-10-15T13:03:59;-12873.44;;;24.26;100.00
14594;BME280;7383;52.354;9.756;2022-10-15T13:06:33;-12865.50;;;23.79;100.00
14594;BME280;7383;52.354;9.756;2022-10-15T13:12:05;-12859.19;;;23.42;100.00
14594;BME280;7383;52.354;9.756;2022-10-15T13:14:53;-12856.97;;;23.29;100.00
14594;BME280;7383;52.354;9.756;2022-10-15T13:17:51;-12849.28;;;22.83;100.00
14594;BME280;7383;52.354;9.756;2022-10-15T13:21:08;-12846.19;;;22.65;100.00
14594;BME280;7383;52.354;9.756;2022-10-15T13:23:45;-12842.16;;;22.41;100.00
14594;BME280;7383;52.354;9.756;2022-10-15T13:26:34;-12841.06;;;22.35;100.00
14594;BME280;7383;52.354;9.756;2022-10-15T13:29:14;-12836.78;;;22.10;100.00